Time;durP1;ratioP1;P1;durP2;ratioP2;P2;SDS_P1;SDS_P2;PMS_P1;PMS_P2;Temp;Humidity;BMP_temperature;BMP_pressure;BME280_temperature;BME280_humidity;BME280_pressure;Samples;Min_cycle;Max_cycle;Signal;HPM_P1;HPM_P2
2022/06/17 00:01:54;;;;;;;5.12;2.98;;;;;;;12.47;75.22;95775.86;1787085;80;21014;-63
2022/06/17 00:04:21;;;;;;;4.33;2.63;;;;;;;12.46;75.06;95771.03;1787025;80;20990;-63
2022/06/17 00:06:56;;;;;;;3.73;2.60;;;;;;;12.50;74.70;95774.50;1786924;80;21007;-63
2022/06/17 00:09:26;;;;;;;3.65;2.67;;;;;;;12.56;75.64;95767.72;1786776;80;21528;-63
2022/06/17 00:11:53;;;;;;;4.73;2.60;;;;;;;12.58;74.87;95767.70;1787039;80;21015;-63
2022/06/17 00:14:29;;;;;;;9.60;3.33;;;;;;;12.64;76.05;95765.75;1787026;80;20987;-64
2022/06/17 00:16:56;;;;;;;4.15;3.10;;;;;;;12.71;75.58;95760.73;1786744;80;21006;-63
2022/06/17 00:19:23;;;;;;;5.40;3.47;;;;;;;12.77;75.49;95750.44;1787135;80;20967;-63
2022/06/17 00:21:53;;;;;;;4.42;3.77;;;;;;;12.86;75.08;95749.36;1786871;80;21011;-63
2022/06/17 00:24:28;;;;;;;7.15;3.15;;;;;;;12.92;74.62;95747.41;1787066;80;21417;-63
2022/06/17 00:26:55;;;;;;;2.92;2.60;;;;;;;13.01;74.43;95738.84;1787097;80;21107;-63
2022/06/17 00:29:26;;;;;;;3.55;2.58;;;;;;;13.01;74.07;95737.52;1786826;80;21129;-63
2022/06/17 00:31:53;;;;;;;2.50;2.17;;;;;;;13.07;74.08;95734.69;1786831;80;21050;-63
2022/06/17 00:34:20;;;;;;;2.92;2.40;;;;;;;13.04;73.91;95729.48;1786896;80;20987;-63
2022/06/17 00:36:47;;;;;;;3.45;3.12;;;;;;;13.04;73.78;95725.50;1786907;80;20960;-63
2022/06/17 00:39:18;;;;;;;6.28;3.90;;;;;;;12.96;73.84;95721.27;1787308;80;21023;-63
2022/06/17 00:41:50;;;;;;;2.87;2.58;;;;;;;12.90;74.80;95716.58;1786933;80;21010;-63
2022/06/17 00:44:40;;;;;;;4.55;2.95;;;;;;;12.91;75.00;95716.55;1787165;80;21011;-63
2022/06/17 00:47:32;;;;;;;4.12;2.83;;;;;;;12.91;74.26;95717.02;1787145;80;21410;-63
2022/06/17 00:50:22;;;;;;;4.10;3.62;;;;;;;12.90;75.14;95712.17;1786754;80;20980;-65
2022/06/17 00:53:06;;;;;;;5.70;3.30;;;;;;;12.93;74.84;95709.44;1786924;80;21521;-65
2022/06/17 00:55:38;;;;;;;3.35;3.00;;;;;;;12.91;75.17;95705.95;1787059;80;21026;-65
2022/06/17 00:58:13;;;;;;;4.08;3.27;;;;;;;12.93;74.77;95704.61;1787229;80;21038;-65
2022/06/17 01:00:40;;;;;;;3.22;2.90;;;;;;;12.96;75.44;95693.92;1787030;80;20971;-65
2022/06/17 01:03:12;;;;;;;3.25;2.95;;;;;;;12.98;74.79;95696.95;1786685;80;21050;-65
2022/06/17 01:05:49;;;;;;;2.87;2.60;;;;;;;12.97;75.12;95691.67;1754390;80;21011;-65
2022/06/17 01:11:13;;;;;;;3.05;2.50;;;;;;;12.96;75.61;95700.08;1787264;80;20979;-65
2022/06/17 01:13:41;;;;;;;4.50;2.77;;;;;;;12.94;74.94;95690.44;1787049;80;21010;-65
2022/06/17 01:16:08;;;;;;;3.77;3.08;;;;;;;12.86;76.27;95687.99;1787024;80;21489;-65
2022/06/17 01:18:40;;;;;;;6.42;2.98;;;;;;;12.85;75.96;95686.27;1786965;80;20982;-65
2022/06/17 01:21:14;;;;;;;;;;;;;;;12.78;75.75;95690.84;1789636;80;21528;-65
2022/06/17 01:23:42;;;;;;;2.80;2.57;;;;;;;12.82;76.29;95690.75;1787162;80;20394;-65
2022/06/17 01:26:09;;;;;;;3.73;2.80;;;;;;;12.83;76.07;95682.78;1787222;80;21050;-65
2022/06/17 01:28:36;;;;;;;3.92;3.10;;;;;;;12.88;76.13;95678.70;1787106;80;21062;-65
2022/06/17 01:31:06;;;;;;;3.45;3.00;;;;;;;12.93;76.32;95680.77;1735970;81;20979;-65
2022/06/17 01:33:37;;;;;;;8.58;3.58;;;;;;;12.92;76.07;95675.91;1755890;82;21011;-65
2022/06/17 01:36:12;;;;;;;4.28;2.95;;;;;;;12.91;76.22;95678.61;1756009;81;21469;-65
2022/06/17 01:38:43;;;;;;;3.05;2.75;;;;;;;12.93;76.52;95675.02;1755273;82;21068;-65
2022/06/17 01:41:14;;;;;;;5.00;3.58;;;;;;;12.99;76.06;95672.19;1726480;82;21130;-66
2022/06/17 01:43:57;;;;;;;5.28;3.10;;;;;;;13.12;75.82;95667.42;1755987;81;21489;-65
2022/06/17 01:46:34;;;;;;;3.90;3.10;;;;;;;13.20;75.31;95667.21;1756101;81;21472;-65
2022/06/17 01:49:06;;;;;;;3.92;2.62;;;;;;;13.20;75.99;95669.43;1756021;81;21019;-65
2022/06/17 01:51:37;;;;;;;4.40;2.50;;;;;;;13.24;75.15;95662.25;1754573;82;21501;-65
2022/06/17 01:54:08;;;;;;;4.78;2.92;;;;;;;13.21;75.40;95666.31;1756083;82;21002;-65
2022/06/17 01:56:38;;;;;;;5.30;3.02;;;;;;;13.20;74.64;95664.13;1756171;81;20989;-65
2022/06/17 01:59:18;;;;;;;3.05;2.70;;;;;;;13.19;75.80;95674.76;1755997;81;20995;-65
2022/06/17 02:01:51;;;;;;;4.55;3.22;;;;;;;13.21;75.45;95672.94;1755903;81;20987;-66
2022/06/17 02:04:21;;;;;;;6.22;2.60;;;;;;;13.25;75.10;95675.90;1755931;81;20995;-65
2022/06/17 02:07:22;;;;;;;3.33;2.25;;;;;;;13.31;74.58;95674.92;1755864;81;21009;-65
2022/06/17 02:09:49;;;;;;;5.17;3.22;;;;;;;13.32;74.50;95672.67;1755755;81;21046;-65
2022/06/17 02:12:19;;;;;;;6.00;3.00;;;;;;;13.39;74.79;95678.22;1755921;81;20990;-65
2022/06/17 02:14:49;;;;;;;5.17;3.35;;;;;;;13.49;74.83;95673.52;1755178;82;21066;-65
2022/06/17 02:17:30;;;;;;;3.47;3.17;;;;;;;13.55;74.47;95675.52;1750641;82;21039;-65
2022/06/17 02:20:02;;;;;;;5.30;2.80;;;;;;;13.62;74.22;95677.09;1752665;82;21504;-65
2022/06/17 02:22:32;;;;;;;3.30;2.83;;;;;;;13.58;74.28;95682.52;1755882;81;21034;-65
2022/06/17 02:25:07;;;;;;;5.47;3.17;;;;;;;13.56;73.53;95677.28;1756070;82;21014;-65
2022/06/17 02:27:35;;;;;;;5.12;4.20;;;;;;;13.60;73.87;95676.25;1754497;82;20995;-65
2022/06/17 02:30:06;;;;;;;5.97;4.40;;;;;;;13.50;74.61;95683.20;1758095;81;21523;-65
2022/06/17 02:32:34;;;;;;;4.17;3.77;;;;;;;13.45;74.65;95681.14;1766348;81;21020;-66
2022/06/17 02:35:23;;;;;;;4.87;4.17;;;;;;;13.42;74.85;95666.19;1766135;81;21070;-65
2022/06/17 02:37:53;;;;;;;4.10;3.70;;;;;;;13.44;74.42;95657.75;1765868;81;21079;-65
2022/06/17 02:40:33;;;;;;;6.42;4.03;;;;;;;13.41;75.54;95645.91;1766352;81;21022;-65
2022/06/17 02:43:03;;;;;;;4.55;3.35;;;;;;;13.39;76.46;95647.27;1766347;81;21019;-65
2022/06/17 02:45:35;;;;;;;3.72;3.37;;;;;;;13.42;76.39;95649.83;1766338;81;21019;-65
2022/06/17 02:48:05;;;;;;;6.58;3.85;;;;;;;13.48;76.74;95651.89;1766440;81;21046;-65
2022/06/17 02:50:33;;;;;;;3.92;2.75;;;;;;;13.52;76.79;95651.76;1766685;81;21085;-65
2022/06/17 02:53:01;;;;;;;4.72;4.08;;;;;;;13.56;76.50;95654.75;1761197;81;21826;-65
2022/06/17 02:55:38;;;;;;;5.20;4.40;;;;;;;13.56;76.97;95660.52;1766151;81;21052;-65
2022/06/17 02:58:13;;;;;;;4.67;4.22;;;;;;;13.59;76.52;95665.25;1766203;81;21018;-65
2022/06/17 03:00:41;;;;;;;5.45;4.35;;;;;;;13.63;76.18;95658.95;1766364;81;21053;-65
2022/06/17 03:03:12;;;;;;;6.10;4.30;;;;;;;13.66;75.57;95653.12;1766184;81;21002;-65
2022/06/17 03:05:43;;;;;;;7.08;4.12;;;;;;;13.70;76.25;95663.60;1766430;81;21491;-65
2022/06/17 03:08:29;;;;;;;5.37;3.90;;;;;;;13.78;76.07;95673.98;1766278;81;21026;-65
2022/06/17 03:11:00;;;;;;;5.75;3.83;;;;;;;13.77;76.16;95676.23;1766312;81;21018;-65
2022/06/17 03:13:47;;;;;;;4.53;4.00;;;;;;;13.77;75.90;95684.19;1766315;81;21489;-65
2022/06/17 03:16:17;;;;;;;6.30;3.92;;;;;;;13.78;76.32;95692.11;1765731;81;21020;-65
2022/06/17 03:18:47;;;;;;;8.05;4.12;;;;;;;13.88;76.35;95705.08;1766095;81;21090;-65
2022/06/17 03:21:20;;;;;;;6.87;4.55;;;;;;;13.96;76.60;95709.26;1766316;81;21493;-65
2022/06/17 03:23:57;;;;;;;5.70;4.22;;;;;;;14.01;76.36;95730.31;1766111;81;21018;-65
2022/06/17 03:26:35;;;;;;;9.40;4.78;;;;;;;14.03;76.71;95729.82;1765835;81;21082;-66
2022/06/17 03:29:06;;;;;;;4.35;2.80;;;;;;;14.07;76.73;95723.05;1766506;81;20982;-66
2022/06/17 03:31:44;;;;;;;3.95;3.50;;;;;;;14.15;75.75;95714.86;1766147;81;20999;-65
2022/06/17 03:34:21;;;;;;;4.45;3.67;;;;;;;14.24;75.05;95713.27;1766237;81;21033;-66
2022/06/17 03:36:56;;;;;;;3.95;3.55;;;;;;;14.35;74.24;95706.28;1766140;81;21472;-66
2022/06/17 03:39:29;;;;;;;4.37;3.33;;;;;;;14.41;74.55;95698.14;1765439;81;21053;-65
2022/06/17 03:42:03;;;;;;;5.72;4.10;;;;;;;14.46;74.56;95690.00;1766528;81;21018;-65
2022/06/17 03:44:38;;;;;;;7.50;3.37;;;;;;;14.49;75.05;95699.22;1766061;81;21018;-65
2022/06/17 03:47:25;;;;;;;3.52;2.98;;;;;;;14.50;75.15;95699.62;1766393;81;21492;-65
2022/06/17 03:49:59;;;;;;;6.03;4.45;;;;;;;14.50;75.37;95704.46;1766136;81;21567;-66
2022/06/17 03:52:52;;;;;;;4.75;3.65;;;;;;;14.49;75.94;95709.37;1766429;81;21022;-65
2022/06/17 03:55:21;;;;;;;3.83;3.10;;;;;;;14.50;76.62;95712.89;1765888;81;21540;-65
2022/06/17 03:57:55;;;;;;;4.00;3.10;;;;;;;14.49;77.11;95715.16;1766211;81;21089;-66
2022/06/17 04:00:50;;;;;;;3.67;3.30;;;;;;;14.55;77.12;95721.61;1765030;81;21030;-66
2022/06/17 04:03:22;;;;;;;6.75;4.55;;;;;;;14.53;78.00;95737.15;1766341;81;21481;-66
2022/06/17 04:05:57;;;;;;;4.08;3.60;;;;;;;14.57;76.88;95746.33;1766292;81;21530;-66
2022/06/17 04:08:24;;;;;;;4.00;2.40;;;;;;;14.63;77.30;95756.75;1766144;81;21048;-65
2022/06/17 04:10:52;;;;;;;6.28;3.47;;;;;;;14.65;77.78;95776.63;1766372;81;21002;-66
2022/06/17 04:13:22;;;;;;;8.10;3.72;;;;;;;14.66;77.21;95784.99;1766314;81;21037;-66
2022/06/17 04:15:59;;;;;;;5.28;3.37;;;;;;;14.71;77.06;95781.27;1764297;81;21042;-66
2022/06/17 04:18:27;;;;;;;3.47;3.10;;;;;;;14.79;76.61;95781.48;1766322;81;20982;-66
2022/06/17 04:20:56;;;;;;;5.85;3.20;;;;;;;14.77;76.20;95779.36;1766242;81;20999;-65
2022/06/17 04:23:29;;;;;;;5.97;3.02;;;;;;;14.68;76.33;95791.13;1766240;81;21002;-66
2022/06/17 04:26:19;;;;;;;3.65;3.30;;;;;;;14.67;76.79;95786.28;1765529;81;21487;-65
2022/06/17 04:28:52;;;;;;;5.67;3.10;;;;;;;14.65;76.57;95785.45;1766202;81;21108;-65
2022/06/17 04:31:24;;;;;;;3.42;3.12;;;;;;;14.68;77.03;95782.70;1765838;81;21507;-65
2022/06/17 04:34:18;;;;;;;3.37;2.97;;;;;;;14.69;77.03;95784.89;1765927;81;21057;-65
2022/06/17 04:37:12;;;;;;;5.67;3.60;;;;;;;14.66;76.81;95784.52;1766554;81;21089;-65
2022/06/17 04:39:53;;;;;;;5.15;3.77;;;;;;;14.68;77.40;95801.75;1765393;81;21050;-65
2022/06/17 04:42:38;;;;;;;4.78;3.90;;;;;;;14.71;78.41;95802.98;1765164;81;21508;-65
2022/06/17 04:45:13;;;;;;;5.80;4.10;;;;;;;14.68;78.53;95810.58;1766277;81;21059;-65
2022/06/17 04:47:40;;;;;;;6.78;4.03;;;;;;;14.68;79.40;95808.39;1760463;81;21536;-65
2022/06/17 04:50:16;;;;;;;4.83;4.25;;;;;;;14.67;81.56;95803.55;1764884;81;21066;-65
2022/06/17 04:52:48;;;;;;;5.65;4.20;;;;;;;14.70;80.83;95795.94;1766382;81;21045;-65
2022/06/17 04:55:32;;;;;;;6.00;4.78;;;;;;;14.70;81.23;95798.59;1765546;81;21022;-65
2022/06/17 04:58:03;;;;;;;10.95;6.78;;;;;;;14.73;81.30;95785.68;1764630;81;21038;-65
2022/06/17 05:00:30;;;;;;;8.38;5.42;;;;;;;14.80;81.04;95786.77;1766308;81;21065;-65
2022/06/17 05:02:59;;;;;;;6.50;5.42;;;;;;;14.91;80.51;95783.75;1766359;81;21018;-65
2022/06/17 05:05:47;;;;;;;7.83;5.42;;;;;;;15.01;80.77;95789.64;1764098;81;21030;-65
2022/06/17 05:08:31;;;;;;;10.13;6.03;;;;;;;15.08;80.49;95789.38;1766395;81;20987;-65
2022/06/17 05:11:21;;;;;;;10.45;5.33;;;;;;;15.16;80.09;95781.15;1766520;81;21018;-65
2022/06/17 05:13:59;;;;;;;5.47;3.90;;;;;;;15.23;79.69;95779.17;1762415;81;21493;-65
2022/06/17 05:16:27;;;;;;;6.45;4.50;;;;;;;15.18;78.78;95779.31;1765068;81;21018;-65
2022/06/17 05:18:53;;;;;;;10.23;6.10;;;;;;;15.07;79.97;95778.83;1766541;81;21034;-65
2022/06/17 05:21:24;;;;;;;7.42;5.62;;;;;;;15.05;80.67;95783.31;1766551;81;20987;-65
2022/06/17 05:23:56;;;;;;;7.17;5.15;;;;;;;15.14;80.53;95789.62;1763485;81;21552;-65
2022/06/17 05:26:24;;;;;;;5.03;4.45;;;;;;;15.14;80.37;95796.27;1766559;81;21034;-65
2022/06/17 05:28:51;;;;;;;7.33;4.40;;;;;;;15.14;80.83;95799.83;1766121;81;21077;-65
2022/06/17 05:31:23;;;;;;;6.00;3.75;;;;;;;15.07;81.61;95798.29;1739216;81;21034;-65
2022/06/17 05:33:52;;;;;;;5.42;3.77;;;;;;;14.99;80.79;95796.31;1773612;81;21064;-65
2022/06/17 05:36:20;;;;;;;7.35;4.55;;;;;;;15.03;81.57;95802.42;1774118;81;21045;-66
2022/06/17 05:38:48;;;;;;;4.97;4.17;;;;;;;15.05;81.56;95796.13;1774414;81;21017;-65
2022/06/17 05:41:19;;;;;;;7.85;3.95;;;;;;;15.10;81.57;95796.85;1774339;81;21488;-65
2022/06/17 05:43:48;;;;;;;5.67;3.55;;;;;;;15.19;81.22;95794.80;1774306;81;21010;-65
2022/06/17 05:46:18;;;;;;;5.12;3.10;;;;;;;15.30;80.89;95795.33;1773324;81;20974;-65
2022/06/17 05:48:58;;;;;;;4.22;3.83;;;;;;;15.32;80.20;95794.78;1709914;81;21021;-65
2022/06/17 05:51:33;;;;;;;7.62;4.80;;;;;;;15.33;80.62;95792.55;1772855;81;21057;-65
2022/06/17 05:54:19;;;;;;;5.25;4.00;;;;;;;15.35;81.78;95794.23;1772530;81;21041;-65
2022/06/17 05:56:48;;;;;;;5.40;3.67;;;;;;;15.36;82.05;95796.43;1772293;81;21014;-65
2022/06/17 05:59:17;;;;;;;5.65;3.70;;;;;;;15.39;81.96;95800.30;1774246;81;21520;-65
2022/06/17 06:01:44;;;;;;;4.22;3.77;;;;;;;15.42;82.00;95792.69;1774366;81;21009;-65
2022/06/17 06:04:13;;;;;;;4.17;3.45;;;;;;;15.54;82.03;95790.47;1774104;81;21495;-66
2022/06/17 06:06:40;;;;;;;4.17;3.77;;;;;;;15.69;81.95;95798.41;1774318;81;21487;-65
2022/06/17 06:09:08;;;;;;;5.03;3.55;;;;;;;15.88;82.52;95799.09;1774295;81;20986;-65
2022/06/17 06:11:36;;;;;;;6.17;3.20;;;;;;;16.04;81.64;95796.74;1774065;81;21013;-65
2022/06/17 06:14:03;;;;;;;8.83;3.62;;;;;;;16.21;81.02;95795.66;1774294;81;21006;-65
2022/06/17 06:16:30;;;;;;;3.80;3.40;;;;;;;16.34;80.74;95793.39;1774249;81;21029;-66
2022/06/17 06:18:59;;;;;;;4.22;3.40;;;;;;;16.47;80.51;95800.45;1774189;81;21014;-65
2022/06/17 06:21:26;;;;;;;4.35;3.95;;;;;;;16.51;79.59;95796.75;1774320;81;20982;-65
2022/06/17 06:23:56;;;;;;;5.10;3.90;;;;;;;16.60;79.38;95801.23;1774497;81;20979;-65
2022/06/17 06:26:24;;;;;;;4.15;3.77;;;;;;;16.72;79.01;95801.70;1773646;81;21480;-65
2022/06/17 06:28:53;;;;;;;3.72;3.42;;;;;;;16.79;79.31;95793.43;1773296;81;21563;-65
2022/06/17 06:31:35;;;;;;;4.05;3.65;;;;;;;17.02;79.09;95788.97;1771584;81;21003;-65
2022/06/17 06:34:04;;;;;;;3.85;3.40;;;;;;;17.31;79.42;95783.75;1765790;81;21030;-66
2022/06/17 06:36:33;;;;;;;3.60;3.30;;;;;;;17.45;77.74;95776.04;1765232;81;21006;-65
2022/06/17 06:39:00;;;;;;;3.60;3.30;;;;;;;17.63;77.61;95775.71;1765987;81;20987;-65
2022/06/17 06:41:26;;;;;;;5.83;3.62;;;;;;;17.81;75.51;95770.06;1766311;81;21484;-65
2022/06/17 06:43:54;;;;;;;4.05;3.72;;;;;;;17.81;75.51;95770.06;1766426;81;21042;-66
2022/06/17 06:46:38;;;;;;;8.05;4.00;;;;;;;17.97;75.45;95779.61;1762116;81;20975;-66
2022/06/17 06:49:05;;;;;;;5.25;3.42;;;;;;;18.10;75.65;95775.45;1766061;81;21017;-66
2022/06/17 06:51:32;;;;;;;5.58;4.15;;;;;;;18.18;75.18;95769.76;1766463;81;21059;-65
2022/06/17 06:53:59;;;;;;;8.70;4.60;;;;;;;18.23;75.33;95768.22;1766480;81;21053;-66
2022/06/17 06:56:27;;;;;;;5.85;4.53;;;;;;;18.40;74.17;95767.45;1766219;81;21073;-66
2022/06/17 06:58:55;;;;;;;8.48;4.10;;;;;;;18.45;74.91;95767.62;1766100;81;21050;-66
2022/06/17 07:01:22;;;;;;;7.15;4.15;;;;;;;18.47;73.83;95766.19;1766393;81;21105;-66
2022/06/17 07:03:48;;;;;;;7.25;3.70;;;;;;;18.51;73.41;95768.66;1766418;81;21356;-65
2022/06/17 07:06:16;;;;;;;6.17;3.42;;;;;;;18.57;73.16;95768.83;1766543;81;20939;-66
2022/06/17 07:08:42;;;;;;;5.85;3.58;;;;;;;18.64;72.77;95771.61;1766316;81;21437;-66
2022/06/17 07:11:10;;;;;;;7.00;3.60;;;;;;;18.69;71.10;95767.39;1766236;81;21015;-65
2022/06/17 07:13:37;;;;;;;11.15;4.60;;;;;;;18.69;70.85;95770.92;1766336;81;21499;-66
2022/06/17 07:16:07;;;;;;;7.40;3.50;;;;;;;18.79;70.94;95765.56;1766325;81;21046;-66
2022/06/17 07:18:36;;;;;;;8.68;4.03;;;;;;;18.81;70.86;95762.83;1766415;81;21513;-66
2022/06/17 07:21:07;;;;;;;9.80;4.15;;;;;;;18.74;70.25;95768.89;1766417;81;20999;-66
2022/06/17 07:23:39;;;;;;;14.63;4.78;;;;;;;18.77;71.34;95767.47;1765908;81;21034;-66
2022/06/17 07:26:16;;;;;;;14.53;4.97;;;;;;;18.94;71.71;95765.77;1766242;81;21007;-66
2022/06/17 07:28:46;;;;;;;8.83;4.17;;;;;;;19.16;71.10;95774.95;1766011;81;21038;-66
2022/06/17 07:31:14;;;;;;;8.58;4.08;;;;;;;19.24;70.60;95778.10;1766202;81;20983;-66
2022/06/17 07:33:40;;;;;;;5.20;3.72;;;;;;;19.32;70.76;95780.39;1766369;81;21070;-66
2022/06/17 07:39:53;;;;;;;6.95;4.20;;;;;;;19.32;70.14;95778.58;1766060;81;21054;-66
2022/06/17 07:41:25;;;;;;;5.28;2.92;;;;;;;19.25;69.77;95781.16;1766210;81;21024;-66
2022/06/17 07:43:53;;;;;;;4.65;2.40;;;;;;;19.25;69.78;95787.84;1765904;81;21026;-66
2022/06/17 07:46:21;;;;;;;3.27;2.42;;;;;;;19.35;64.70;95786.92;1766364;81;20983;-66
2022/06/17 07:48:48;;;;;;;7.40;2.60;;;;;;;19.58;65.74;95772.38;1766401;81;21033;-66
2022/06/17 07:51:16;;;;;;;2.40;2.20;;;;;;;19.85;66.60;95784.84;1766254;81;21433;-66
2022/06/17 07:53:43;;;;;;;5.33;2.60;;;;;;;19.97;64.88;95787.36;1766569;81;20985;-66
2022/06/17 07:56:15;;;;;;;3.27;2.87;;;;;;;20.00;63.78;95789.39;1766098;81;21024;-66
2022/06/17 07:58:44;;;;;;;7.15;2.25;;;;;;;20.09;65.09;95791.59;1766573;81;20986;-66
2022/06/17 08:01:13;;;;;;;2.83;2.40;;;;;;;20.12;61.68;95788.37;1766299;81;21014;-66
2022/06/17 08:03:41;;;;;;;3.80;2.30;;;;;;;20.15;62.67;95789.53;1766264;81;21029;-66
2022/06/17 08:06:11;;;;;;;2.45;2.15;;;;;;;20.23;60.09;95783.28;1766362;81;21010;-66
2022/06/17 08:08:39;;;;;;;3.45;2.45;;;;;;;20.23;59.54;95787.30;1766535;81;20950;-66
2022/06/17 08:11:06;;;;;;;2.92;2.42;;;;;;;20.43;61.11;95788.91;1766044;81;21018;-66
2022/06/17 08:13:33;;;;;;;6.33;2.85;;;;;;;20.78;61.00;95784.80;1766536;81;21054;-66
2022/06/17 08:16:05;;;;;;;10.08;3.33;;;;;;;21.08;61.01;95776.84;1766185;81;21074;-66
2022/06/17 08:18:33;;;;;;;4.10;2.52;;;;;;;21.33;60.85;95777.63;1766320;81;20967;-66
2022/06/17 08:21:00;;;;;;;4.55;2.52;;;;;;;21.49;58.25;95770.42;1766577;81;21055;-66
2022/06/17 08:23:27;;;;;;;6.12;2.80;;;;;;;21.65;57.69;95773.58;1766396;81;21516;-66
2022/06/17 08:25:55;;;;;;;2.60;2.25;;;;;;;21.78;55.31;95769.19;1766316;81;21010;-66
2022/06/17 08:28:21;;;;;;;3.37;2.62;;;;;;;21.87;56.07;95766.41;1766562;81;20987;-66
2022/06/17 08:30:53;;;;;;;4.00;2.40;;;;;;;22.01;56.07;95770.00;1766397;81;20955;-66
2022/06/17 08:33:27;;;;;;;3.33;2.37;;;;;;;22.18;56.11;95770.80;1766150;81;21113;-66
2022/06/17 08:35:49;;;;;;;2.25;2.05;;;;;;;22.31;54.87;95767.76;1765451;81;21042;-66
2022/06/17 08:38:30;;;;;;;3.87;2.47;;;;;;;22.43;53.31;95766.14;1766262;81;21535;-66
2022/06/17 08:41:20;;;;;;;6.33;2.85;;;;;;;22.50;52.49;95766.11;1766123;81;21488;-66
2022/06/17 08:44:14;;;;;;;6.15;2.77;;;;;;;22.56;51.06;95772.95;1724273;81;21034;-67
2022/06/17 08:46:49;;;;;;;4.83;2.75;;;;;;;22.64;50.01;95777.35;1766087;81;21018;-67
2022/06/17 08:49:36;;;;;;;4.28;2.40;;;;;;;22.81;50.40;95769.56;1765462;81;21090;-67
2022/06/17 08:52:14;;;;;;;6.95;2.58;;;;;;;23.01;50.97;95762.44;1763892;81;21122;-66
2022/06/17 08:55:01;;;;;;;4.47;2.55;;;;;;;23.06;49.06;95769.72;1724824;81;21037;-66
2022/06/17 08:58:00;;;;;;;11.12;4.75;;;;;;;23.11;49.31;95772.13;1764978;81;21104;-66
2022/06/17 09:00:49;;;;;;;7.75;3.95;;;;;;;22.93;48.80;95768.77;1766348;81;21014;-67
2022/06/17 09:03:28;;;;;;;3.10;2.02;;;;;;;22.61;48.56;95769.48;1765050;81;21483;-67
2022/06/17 09:06:03;;;;;;;3.05;2.20;;;;;;;22.57;49.32;95776.86;1766253;81;21002;-66
2022/06/17 09:09:04;;;;;;;3.90;2.62;;;;;;;22.29;48.04;95775.05;1763995;81;21559;-66
2022/06/17 09:11:44;;;;;;;4.28;2.37;;;;;;;22.40;48.69;95771.23;1765768;81;21066;-66
2022/06/17 09:14:44;;;;;;;3.60;1.87;;;;;;;22.65;49.58;95773.23;1766108;81;21002;-67
2022/06/17 09:17:44;;;;;;;3.22;2.27;;;;;;;22.93;48.84;95771.46;1766542;81;21019;-67
2022/06/17 09:20:16;;;;;;;3.22;2.27;;;;;;;22.99;47.33;95776.47;1766347;81;21025;-67
2022/06/17 09:22:47;;;;;;;3.35;2.20;;;;;;;22.87;49.01;95783.46;1766125;81;21030;-67
2022/06/17 09:25:19;;;;;;;2.33;1.60;;;;;;;22.92;48.08;95787.70;1766562;81;21002;-66
2022/06/17 09:27:48;;;;;;;2.55;2.00;;;;;;;22.71;46.74;95785.91;1766103;81;21027;-66
2022/06/17 09:30:22;;;;;;;2.30;2.10;;;;;;;22.87;48.35;95776.73;1766370;81;21038;-67
2022/06/17 09:33:09;;;;;;;7.42;2.20;;;;;;;23.04;46.79;95774.83;1766265;81;21019;-67
2022/06/17 09:35:57;;;;;;;4.05;1.87;;;;;;;23.41;47.63;95778.66;1766150;81;21058;-67
2022/06/17 09:39:00;;;;;;;3.72;2.45;;;;;;;23.66;47.23;95764.86;1766650;81;21011;-67
2022/06/17 09:41:41;;;;;;;4.20;3.17;;;;;;;24.00;45.60;95776.08;1766316;81;21063;-66
2022/06/17 09:44:21;;;;;;;14.10;2.50;;;;;;;23.81;44.40;95785.89;1766228;81;20979;-66
2022/06/17 09:47:18;;;;;;;3.35;1.98;;;;;;;23.69;44.56;95784.89;1766360;81;21002;-67
2022/06/17 09:49:52;;;;;;;5.45;2.50;;;;;;;23.60;44.32;95782.80;1765361;81;21077;-66
2022/06/17 09:52:27;;;;;;;4.65;1.90;;;;;;;23.58;44.62;95783.38;1766571;81;20990;-66
2022/06/17 09:55:21;;;;;;;3.92;2.25;;;;;;;23.64;46.00;95785.19;1766583;81;21003;-66
2022/06/17 09:57:56;;;;;;;4.78;1.92;;;;;;;23.88;45.29;95785.86;1766409;81;20990;-66
2022/06/17 10:00:35;;;;;;;2.42;2.10;;;;;;;24.32;43.51;95783.28;1764938;81;21106;-66
2022/06/17 10:03:26;;;;;;;2.95;1.90;;;;;;;24.19;41.94;95796.73;1766437;81;21077;-67
2022/06/17 10:06:16;;;;;;;4.22;1.90;;;;;;;24.00;43.39;95792.25;1766489;81;20989;-66
2022/06/17 10:08:54;;;;;;;3.10;1.95;;;;;;;23.88;43.79;95794.80;1766445;81;21464;-66
2022/06/17 10:11:32;;;;;;;6.12;2.00;;;;;;;23.74;41.48;95785.47;1754258;81;21045;-67
2022/06/17 10:14:22;;;;;;;3.10;2.22;;;;;;;23.62;44.63;95787.61;1766386;81;21071;-66
2022/06/17 10:20:24;;;;;;;2.58;2.20;;;;;;;23.67;42.59;95790.86;1766135;81;21034;-66
2022/06/17 10:23:16;;;;;;;2.90;1.70;;;;;;;24.17;41.82;95796.00;1766431;81;21038;-67
2022/06/17 10:26:00;;;;;;;8.83;2.12;;;;;;;24.68;42.23;95791.97;1765672;81;21085;-66
2022/06/17 10:29:02;;;;;;;5.75;2.02;;;;;;;24.63;39.60;95791.44;1766602;81;21055;-67
2022/06/17 10:31:39;;;;;;;6.03;2.00;;;;;;;24.23;40.91;95800.95;1766213;81;21074;-67
2022/06/17 10:34:14;;;;;;;2.65;1.80;;;;;;;23.92;41.83;95799.03;1766451;81;21026;-66
2022/06/17 10:36:44;;;;;;;1.95;1.85;;;;;;;24.06;41.92;95799.91;1746923;81;21003;-67
2022/06/17 10:39:14;;;;;;;2.98;2.10;;;;;;;24.50;40.64;95796.84;1766229;81;21070;-67
2022/06/17 10:41:41;;;;;;;4.30;2.62;;;;;;;24.94;40.64;95805.42;1766374;81;21030;-67
2022/06/17 10:44:15;;;;;;;8.65;3.20;;;;;;;24.88;40.72;95806.73;1766387;81;21061;-67
2022/06/17 10:46:46;;;;;;;5.65;2.50;;;;;;;24.66;43.02;95807.89;1766389;81;21568;-67
2022/06/17 10:49:27;;;;;;;4.78;2.87;;;;;;;24.15;44.73;95813.62;1765855;81;21034;-66
2022/06/17 10:51:56;;;;;;;12.03;4.50;;;;;;;23.73;46.55;95824.99;1765480;81;20987;-66
2022/06/17 10:54:34;;;;;;;6.92;4.22;;;;;;;23.28;49.62;95830.22;1766436;81;21053;-67
2022/06/17 10:57:10;;;;;;;12.28;4.50;;;;;;;22.91;55.57;95840.65;1766256;81;21085;-67
2022/06/17 10:59:43;;;;;;;9.53;4.28;;;;;;;22.66;58.10;95831.43;1766477;81;21057;-67
2022/06/17 11:02:25;;;;;;;;;;;;;;;22.50;59.04;95831.13;1769075;81;21094;-66
2022/06/17 11:04:56;;;;;;;6.22;4.05;;;;;;;22.33;61.03;95832.19;1766092;81;20395;-66
2022/06/17 11:07:31;;;;;;;6.87;3.30;;;;;;;22.27;60.09;95824.48;1766040;81;21559;-67
2022/06/17 11:10:15;;;;;;;5.60;2.83;;;;;;;22.45;61.00;95827.38;1766660;81;21007;-66
2022/06/17 11:13:02;;;;;;;6.28;3.40;;;;;;;22.43;61.01;95822.59;1766090;81;21516;-66
2022/06/17 11:15:36;;;;;;;6.53;3.20;;;;;;;22.59;57.52;95814.43;1766424;81;21050;-67
2022/06/17 11:18:11;;;;;;;4.30;2.85;;;;;;;22.82;56.69;95817.01;1766456;81;21464;-67
2022/06/17 11:20:39;;;;;;;6.22;3.02;;;;;;;23.03;55.25;95812.99;1766060;81;20994;-64
2022/06/17 11:23:20;;;;;;;6.25;3.10;;;;;;;22.87;57.59;95813.05;1766242;81;21038;-64
2022/06/17 11:25:48;;;;;;;2.92;2.72;;;;;;;22.99;55.18;95805.21;1766558;81;21029;-64
2022/06/17 11:28:34;;;;;;;2.67;2.47;;;;;;;23.04;55.38;95805.78;1766146;81;21007;-64
2022/06/17 11:31:06;;;;;;;2.77;2.47;;;;;;;23.10;52.42;95806.71;1766423;81;21053;-64
2022/06/17 11:33:41;;;;;;;3.25;2.62;;;;;;;23.10;51.55;95799.49;1766260;81;21512;-66
2022/06/17 11:36:28;;;;;;;3.33;2.40;;;;;;;23.17;53.14;95802.66;1766424;81;21053;-67
2022/06/17 11:38:58;;;;;;;3.10;2.72;;;;;;;23.19;51.30;95806.12;1766358;81;21517;-67
2022/06/17 11:41:29;;;;;;;2.60;2.40;;;;;;;23.33;52.20;95802.05;1762270;81;21033;-67
2022/06/17 11:44:06;;;;;;;6.65;2.85;;;;;;;23.65;51.73;95805.77;1766331;81;21022;-66
2022/06/17 11:46:35;;;;;;;6.90;2.98;;;;;;;23.78;51.70;95805.83;1766313;81;21062;-66
2022/06/17 11:49:13;;;;;;;4.50;2.50;;;;;;;23.59;50.80;95814.76;1766216;81;21015;-66
2022/06/17 11:51:48;;;;;;;3.27;2.50;;;;;;;23.43;49.61;95812.20;1736860;81;21011;-67
2022/06/17 11:54:38;;;;;;;3.65;2.35;;;;;;;23.24;49.61;95817.45;1766164;81;21019;-67
2022/06/17 11:57:31;;;;;;;3.65;2.87;;;;;;;22.93;48.96;95819.00;1763091;81;21034;-67
2022/06/17 12:00:04;;;;;;;3.00;2.37;;;;;;;22.84;50.34;95819.98;1766304;81;21026;-66
2022/06/17 12:02:32;;;;;;;3.27;2.55;;;;;;;22.80;50.38;95821.62;1764893;81;21121;-67
2022/06/17 12:05:10;;;;;;;3.35;2.60;;;;;;;22.77;51.28;95819.98;1766401;81;21503;-66
2022/06/17 12:08:02;;;;;;;2.33;2.08;;;;;;;22.80;52.38;95810.37;1764972;81;21002;-66
2022/06/17 12:10:51;;;;;;;3.52;2.52;;;;;;;22.67;48.63;95812.11;1766097;81;21179;-67
2022/06/17 12:13:45;;;;;;;2.75;2.27;;;;;;;22.73;50.24;95818.47;1766090;81;21030;-66
2022/06/17 12:16:43;;;;;;;3.35;2.80;;;;;;;23.00;51.21;95804.23;1766040;81;21022;-66
2022/06/17 12:19:18;;;;;;;2.80;2.60;;;;;;;23.73;49.58;95802.58;1728607;81;21022;-67